sensor_id;sensor_type;location;lat;lon;timestamp;pressure;altitude;pressure_sealevel;temperature;humidity
79236;BME280;69062;47.460;18.812;2023-06-22T00:00:19;100450.56;;;27.60;55.60
79236;BME280;69062;47.460;18.812;2023-06-22T00:01:23;100437.00;;;27.60;56.50
79236;BME280;69062;47.460;18.812;2023-06-22T00:02:26;100438.84;;;27.59;56.24
79236;BME280;69062;47.460;18.812;2023-06-22T00:03:29;100438.00;;;27.59;56.52
79236;BME280;69062;47.460;18.812;2023-06-22T00:04:32;100439.84;;;27.58;55.99
79236;BME280;69062;47.460;18.812;2023-06-22T00:05:35;100441.72;;;27.58;56.35
79236;BME280;69062;47.460;18.812;2023-06-22T00:06:37;100447.16;;;27.58;56.37
79236;BME280;69062;47.460;18.812;2023-06-22T00:07:40;100456.34;;;27.57;55.93
79236;BME280;69062;47.460;18.812;2023-06-22T00:08:43;100453.63;;;27.57;56.34
79236;BME280;69062;47.460;18.812;2023-06-22T00:09:46;100457.34;;;27.56;56.06
79236;BME280;69062;47.460;18.812;2023-06-22T00:10:48;100454.66;;;27.56;55.63
79236;BME280;69062;47.460;18.812;2023-06-22T00:11:51;100447.34;;;27.56;56.08
79236;BME280;69062;47.460;18.812;2023-06-22T00:12:54;100438.38;;;27.56;55.83
79236;BME280;69062;47.460;18.812;2023-06-22T00:13:56;100442.94;;;27.55;56.37
79236;BME280;69062;47.460;18.812;2023-06-22T00:14:59;100436.03;;;27.53;56.64
79236;BME280;69062;47.460;18.812;2023-06-22T00:16:02;100448.56;;;27.54;56.00
79236;BME280;69062;47.460;18.812;2023-06-22T00:17:05;100436.88;;;27.53;56.40
79236;BME280;69062;47.460;18.812;2023-06-22T00:18:09;100447.72;;;27.53;56.41
79236;BME280;69062;47.460;18.812;2023-06-22T00:19:12;100446.00;;;27.52;56.49
79236;BME280;69062;47.460;18.812;2023-06-22T00:20:15;100443.28;;;27.52;56.40
79236;BME280;69062;47.460;18.812;2023-06-22T00:21:19;100434.31;;;27.52;56.20
79236;BME280;69062;47.460;18.812;2023-06-22T00:22:23;100432.63;;;27.51;56.63
79236;BME280;69062;47.460;18.812;2023-06-22T00:23:31;100440.75;;;27.51;56.34
79236;BME280;69062;47.460;18.812;2023-06-22T00:24:37;100435.50;;;27.49;56.49
79236;BME280;69062;47.460;18.812;2023-06-22T00:25:39;100448.06;;;27.50;56.45
79236;BME280;69062;47.460;18.812;2023-06-22T00:26:46;100448.06;;;27.50;55.95
79236;BME280;69062;47.460;18.812;2023-06-22T00:27:49;100451.78;;;27.49;56.44
79236;BME280;69062;47.460;18.812;2023-06-22T00:28:52;100451.78;;;27.49;56.56
79236;BME280;69062;47.460;18.812;2023-06-22T00:29:55;100446.38;;;27.49;56.20
79236;BME280;69062;47.460;18.812;2023-06-22T00:30:58;100450.94;;;27.48;56.59
79236;BME280;69062;47.460;18.812;2023-06-22T00:32:00;100451.97;;;27.47;56.15
79236;BME280;69062;47.460;18.812;2023-06-22T00:33:03;100442.16;;;27.46;56.47
79236;BME280;69062;47.460;18.812;2023-06-22T00:34:06;100447.59;;;27.46;56.99
79236;BME280;69062;47.460;18.812;2023-06-22T00:35:14;100448.44;;;27.47;56.84
79236;BME280;69062;47.460;18.812;2023-06-22T00:36:16;100442.16;;;27.46;56.35
79236;BME280;69062;47.460;18.812;2023-06-22T00:37:20;100441.31;;;27.46;56.21
79236;BME280;69062;47.460;18.812;2023-06-22T00:38:28;100446.75;;;27.46;56.17
79236;BME280;69062;47.460;18.812;2023-06-22T00:39:31;100446.88;;;27.44;55.75
79236;BME280;69062;47.460;18.812;2023-06-22T00:40:35;100447.72;;;27.45;56.72
79236;BME280;69062;47.460;18.812;2023-06-22T00:41:38;100444.19;;;27.44;56.70
79236;BME280;69062;47.460;18.812;2023-06-22T00:42:41;100446.88;;;27.44;56.27
79236;BME280;69062;47.460;18.812;2023-06-22T00:43:45;100450.63;;;27.43;56.53
79236;BME280;69062;47.460;18.812;2023-06-22T00:44:47;100448.75;;;27.44;56.27
79236;BME280;69062;47.460;18.812;2023-06-22T00:45:50;100451.47;;;27.44;56.39
79236;BME280;69062;47.460;18.812;2023-06-22T00:46:53;100444.38;;;27.43;56.34
79236;BME280;69062;47.460;18.812;2023-06-22T00:47:57;100440.81;;;27.42;56.30
79236;BME280;69062;47.460;18.812;2023-06-22T00:49:00;100439.13;;;27.41;56.73
79236;BME280;69062;47.460;18.812;2023-06-22T00:50:06;100440.81;;;27.42;56.79
79236;BME280;69062;47.460;18.812;2023-06-22T00:51:10;100437.25;;;27.42;56.35
79236;BME280;69062;47.460;18.812;2023-06-22T00:52:14;100444.56;;;27.41;56.93
79236;BME280;69062;47.460;18.812;2023-06-22T00:53:24;100449.13;;;27.41;56.38
79236;BME280;69062;47.460;18.812;2023-06-22T00:54:29;100446.41;;;27.41;57.01
79236;BME280;69062;47.460;18.812;2023-06-22T00:55:32;100439.31;;;27.40;56.94
79236;BME280;69062;47.460;18.812;2023-06-22T00:56:36;100435.75;;;27.39;56.80
79236;BME280;69062;47.460;18.812;2023-06-22T00:57:40;100432.19;;;27.39;56.62
79236;BME280;69062;47.460;18.812;2023-06-22T00:58:43;100430.31;;;27.39;56.72
79236;BME280;69062;47.460;18.812;2023-06-22T00:59:47;100432.19;;;27.39;56.35
79236;BME280;69062;47.460;18.812;2023-06-22T01:00:51;100435.75;;;27.39;56.36
79236;BME280;69062;47.460;18.812;2023-06-22T01:01:54;100429.47;;;27.39;56.27
79236;BME280;69062;47.460;18.812;2023-06-22T01:02:57;100428.63;;;27.38;56.41
79236;BME280;69062;47.460;18.812;2023-06-22T01:04:00;100427.81;;;27.38;56.06
79236;BME280;69062;47.460;18.812;2023-06-22T01:05:03;100431.34;;;27.38;56.23
79236;BME280;69062;47.460;18.812;2023-06-22T01:06:15;100421.50;;;27.37;56.16
79236;BME280;69062;47.460;18.812;2023-06-22T01:07:42;100426.94;;;27.37;56.15
79236;BME280;69062;47.460;18.812;2023-06-22T01:08:57;100426.09;;;27.37;56.82
79236;BME280;69062;47.460;18.812;2023-06-22T01:11:26;100421.69;;;27.36;56.55
79236;BME280;69062;47.460;18.812;2023-06-22T01:12:34;100425.41;;;27.35;56.49
79236;BME280;69062;47.460;18.812;2023-06-22T01:15:13;100421.88;;;27.34;56.82
79236;BME280;69062;47.460;18.812;2023-06-22T01:16:21;100414.75;;;27.33;56.88
79236;BME280;69062;47.460;18.812;2023-06-22T01:17:26;100410.16;;;27.34;56.07
79236;BME280;69062;47.460;18.812;2023-06-22T01:18:31;100412.03;;;27.33;56.16
79236;BME280;69062;47.460;18.812;2023-06-22T01:19:48;100411.19;;;27.33;56.17
79236;BME280;69062;47.460;18.812;2023-06-22T01:21:00;100418.50;;;27.32;56.83
79236;BME280;69062;47.460;18.812;2023-06-22T01:22:06;100420.38;;;27.32;56.20
79236;BME280;69062;47.460;18.812;2023-06-22T01:25:00;100420.38;;;27.32;57.04
79236;BME280;69062;47.460;18.812;2023-06-22T01:26:19;100422.22;;;27.31;56.67
79236;BME280;69062;47.460;18.812;2023-06-22T01:27:33;100425.94;;;27.30;56.89
79236;BME280;69062;47.460;18.812;2023-06-22T01:28:49;100426.81;;;27.31;56.54
79236;BME280;69062;47.460;18.812;2023-06-22T01:29:55;100420.53;;;27.30;56.82
79236;BME280;69062;47.460;18.812;2023-06-22T01:31:04;100411.72;;;27.28;56.40
79236;BME280;69062;47.460;18.812;2023-06-22T01:32:08;100412.56;;;27.29;56.84
79236;BME280;69062;47.460;18.812;2023-06-22T01:33:13;100420.69;;;27.29;56.94
79236;BME280;69062;47.460;18.812;2023-06-22T01:34:17;100411.72;;;27.28;56.31
79236;BME280;69062;47.460;18.812;2023-06-22T01:35:21;100415.47;;;27.27;56.20
79236;BME280;69062;47.460;18.812;2023-06-22T01:36:25;100414.44;;;27.28;56.89
79236;BME280;69062;47.460;18.812;2023-06-22T01:37:29;100418.19;;;27.27;57.01
79236;BME280;69062;47.460;18.812;2023-06-22T01:38:32;100411.06;;;27.26;56.82
79236;BME280;69062;47.460;18.812;2023-06-22T01:39:36;100414.44;;;27.28;56.41
79236;BME280;69062;47.460;18.812;2023-06-22T01:40:39;100413.78;;;27.26;56.73
79236;BME280;69062;47.460;18.812;2023-06-22T01:41:42;100418.34;;;27.26;56.66
79236;BME280;69062;47.460;18.812;2023-06-22T01:42:46;100416.69;;;27.25;56.52
79236;BME280;69062;47.460;18.812;2023-06-22T01:43:49;100414.81;;;27.25;56.92
79236;BME280;69062;47.460;18.812;2023-06-22T01:44:56;100417.69;;;27.24;56.80
79236;BME280;69062;47.460;18.812;2023-06-22T01:46:01;100415.84;;;27.24;57.26
79236;BME280;69062;47.460;18.812;2023-06-22T01:47:05;100417.69;;;27.24;56.71
79236;BME280;69062;47.460;18.812;2023-06-22T01:48:11;100415.97;;;27.23;56.56
79236;BME280;69062;47.460;18.812;2023-06-22T01:49:14;100422.25;;;27.23;56.64
79236;BME280;69062;47.460;18.812;2023-06-22T01:50:18;100422.44;;;27.21;57.21
79236;BME280;69062;47.460;18.812;2023-06-22T01:51:21;100427.84;;;27.21;56.91
79236;BME280;69062;47.460;18.812;2023-06-22T01:52:24;100423.28;;;27.22;57.18
79236;BME280;69062;47.460;18.812;2023-06-22T01:53:26;100422.44;;;27.21;57.14
79236;BME280;69062;47.460;18.812;2023-06-22T01:54:29;100427.84;;;27.21;56.45
79236;BME280;69062;47.460;18.812;2023-06-22T01:55:32;100429.72;;;27.21;56.96
79236;BME280;69062;47.460;18.812;2023-06-22T01:56:35;100427.00;;;27.21;56.89
79236;BME280;69062;47.460;18.812;2023-06-22T01:57:39;100427.84;;;27.21;56.61
79236;BME280;69062;47.460;18.812;2023-06-22T01:58:49;100424.31;;;27.21;57.32
79236;BME280;69062;47.460;18.812;2023-06-22T02:00:09;100429.91;;;27.19;57.06
79236;BME280;69062;47.460;18.812;2023-06-22T02:01:20;100430.75;;;27.20;56.86
79236;BME280;69062;47.460;18.812;2023-06-22T02:02:38;100423.84;;;27.17;56.84
79236;BME280;69062;47.460;18.812;2023-06-22T02:03:44;100434.50;;;27.19;57.03
79236;BME280;69062;47.460;18.812;2023-06-22T02:04:59;100430.94;;;27.18;56.50
79236;BME280;69062;47.460;18.812;2023-06-22T02:06:08;100431.97;;;27.17;56.89
79236;BME280;69062;47.460;18.812;2023-06-22T02:07:14;100428.41;;;27.17;56.74
79236;BME280;69062;47.460;18.812;2023-06-22T02:08:25;100428.22;;;27.18;56.97
79236;BME280;69062;47.460;18.812;2023-06-22T02:09:31;100431.13;;;27.17;56.71
79236;BME280;69062;47.460;18.812;2023-06-22T02:10:38;100439.25;;;27.17;56.60
79236;BME280;69062;47.460;18.812;2023-06-22T02:11:45;100432.13;;;27.16;57.01
79236;BME280;69062;47.460;18.812;2023-06-22T02:12:51;100435.69;;;27.16;56.85
79236;BME280;69062;47.460;18.812;2023-06-22T02:13:57;100444.69;;;27.17;56.79
79236;BME280;69062;47.460;18.812;2023-06-22T02:15:00;100440.25;;;27.16;56.95
79236;BME280;69062;47.460;18.812;2023-06-22T02:16:04;100438.56;;;27.15;57.07
79236;BME280;69062;47.460;18.812;2023-06-22T02:17:09;100445.03;;;27.14;56.96
79236;BME280;69062;47.460;18.812;2023-06-22T02:18:12;100456.53;;;27.16;57.13
79236;BME280;69062;47.460;18.812;2023-06-22T02:19:15;100449.41;;;27.15;56.71
79236;BME280;69062;47.460;18.812;2023-06-22T02:20:18;100449.41;;;27.15;56.92
79236;BME280;69062;47.460;18.812;2023-06-22T02:21:21;100449.59;;;27.13;56.81
79236;BME280;69062;47.460;18.812;2023-06-22T02:22:24;100451.28;;;27.14;56.83
79236;BME280;69062;47.460;18.812;2023-06-22T02:23:27;100450.44;;;27.14;56.80
79236;BME280;69062;47.460;18.812;2023-06-22T02:24:30;100456.72;;;27.14;56.77
79236;BME280;69062;47.460;18.812;2023-06-22T02:25:35;100446.03;;;27.13;56.92
79236;BME280;69062;47.460;18.812;2023-06-22T02:26:38;100463.16;;;27.13;57.32
79236;BME280;69062;47.460;18.812;2023-06-22T02:27:45;100459.59;;;27.13;56.90
79236;BME280;69062;47.460;18.812;2023-06-22T02:28:47;100449.78;;;27.12;57.16
79236;BME280;69062;47.460;18.812;2023-06-22T02:29:52;100458.75;;;27.12;56.79
79236;BME280;69062;47.460;18.812;2023-06-22T02:30:55;100459.78;;;27.11;57.23
79236;BME280;69062;47.460;18.812;2023-06-22T02:31:57;100463.34;;;27.12;56.92
79236;BME280;69062;47.460;18.812;2023-06-22T02:33:00;100461.47;;;27.12;56.68
79236;BME280;69062;47.460;18.812;2023-06-22T02:34:03;100460.81;;;27.10;56.73
79236;BME280;69062;47.460;18.812;2023-06-22T02:35:06;100455.22;;;27.12;56.78
79236;BME280;69062;47.460;18.812;2023-06-22T02:36:09;100462.50;;;27.11;56.52
79236;BME280;69062;47.460;18.812;2023-06-22T02:37:12;100462.69;;;27.10;56.93
79236;BME280;69062;47.460;18.812;2023-06-22T02:38:15;100470.81;;;27.10;57.08
79236;BME280;69062;47.460;18.812;2023-06-22T02:39:22;100466.25;;;27.10;56.97
79236;BME280;69062;47.460;18.812;2023-06-22T02:40:25;100473.53;;;27.10;56.95
79236;BME280;69062;47.460;18.812;2023-06-22T02:41:28;100473.53;;;27.10;56.49
79236;BME280;69062;47.460;18.812;2023-06-22T02:42:31;100474.53;;;27.09;56.53
79236;BME280;69062;47.460;18.812;2023-06-22T02:43:34;100475.41;;;27.09;57.23
79236;BME280;69062;47.460;18.812;2023-06-22T02:44:37;100479.94;;;27.09;57.01
79236;BME280;69062;47.460;18.812;2023-06-22T02:45:40;100475.53;;;27.08;57.06
79236;BME280;69062;47.460;18.812;2023-06-22T02:46:43;100472.84;;;27.08;56.69
79236;BME280;69062;47.460;18.812;2023-06-22T02:47:47;100478.25;;;27.08;57.07
79236;BME280;69062;47.460;18.812;2023-06-22T02:48:51;100485.56;;;27.07;57.05
79236;BME280;69062;47.460;18.812;2023-06-22T02:49:53;100483.69;;;27.08;56.71
79236;BME280;69062;47.460;18.812;2023-06-22T02:50:57;100483.88;;;27.06;57.15
79236;BME280;69062;47.460;18.812;2023-06-22T02:52:00;100485.56;;;27.07;56.80
79236;BME280;69062;47.460;18.812;2023-06-22T02:53:03;100478.44;;;27.06;57.07
79236;BME280;69062;47.460;18.812;2023-06-22T02:54:10;100469.47;;;27.06;57.16
79236;BME280;69062;47.460;18.812;2023-06-22T02:55:13;100471.34;;;27.05;56.55
79236;BME280;69062;47.460;18.812;2023-06-22T02:56:19;100458.63;;;27.06;56.64
79236;BME280;69062;47.460;18.812;2023-06-22T02:57:30;100459.66;;;27.05;56.99
79236;BME280;69062;47.460;18.812;2023-06-22T02:58:33;100458.78;;;27.04;56.91
79236;BME280;69062;47.460;18.812;2023-06-22T02:59:44;100460.63;;;27.04;57.01
79236;BME280;69062;47.460;18.812;2023-06-22T03:00:47;100467.78;;;27.05;57.06
79236;BME280;69062;47.460;18.812;2023-06-22T03:01:50;100461.50;;;27.04;57.11
79236;BME280;69062;47.460;18.812;2023-06-22T03:02:58;100463.34;;;27.04;56.43
79236;BME280;69062;47.460;18.812;2023-06-22T03:04:01;100457.91;;;27.04;56.71
79236;BME280;69062;47.460;18.812;2023-06-22T03:05:04;100465.22;;;27.03;56.66
79236;BME280;69062;47.460;18.812;2023-06-22T03:06:08;100462.50;;;27.03;56.86
79236;BME280;69062;47.460;18.812;2023-06-22T03:07:16;100461.66;;;27.03;56.97
79236;BME280;69062;47.460;18.812;2023-06-22T03:08:20;100464.38;;;27.03;56.94
79236;BME280;69062;47.460;18.812;2023-06-22T03:09:23;100463.53;;;27.02;56.59
79236;BME280;69062;47.460;18.812;2023-06-22T03:10:26;100460.81;;;27.02;56.56
79236;BME280;69062;47.460;18.812;2023-06-22T03:11:32;100461.81;;;27.01;56.53
79236;BME280;69062;47.460;18.812;2023-06-22T03:12:37;100465.41;;;27.02;56.70
79236;BME280;69062;47.460;18.812;2023-06-22T03:13:40;100456.38;;;27.01;56.77
79236;BME280;69062;47.460;18.812;2023-06-22T03:14:43;100452.84;;;27.01;56.91
79236;BME280;69062;47.460;18.812;2023-06-22T03:15:46;100460.13;;;27.00;56.85
79236;BME280;69062;47.460;18.812;2023-06-22T03:16:48;100463.69;;;27.01;57.00
79236;BME280;69062;47.460;18.812;2023-06-22T03:17:54;100451.16;;;27.00;56.65
79236;BME280;69062;47.460;18.812;2023-06-22T03:18:58;100448.44;;;27.00;56.93
79236;BME280;69062;47.460;18.812;2023-06-22T03:20:02;100452.00;;;27.00;56.77
79236;BME280;69062;47.460;18.812;2023-06-22T03:21:11;100445.72;;;27.00;56.72
79236;BME280;69062;47.460;18.812;2023-06-22T03:22:14;100450.31;;;26.99;56.12
79236;BME280;69062;47.460;18.812;2023-06-22T03:23:18;100446.75;;;26.99;56.51
79236;BME280;69062;47.460;18.812;2023-06-22T03:24:20;100446.75;;;26.99;56.81
79236;BME280;69062;47.460;18.812;2023-06-22T03:25:23;100448.81;;;26.97;56.65
79236;BME280;69062;47.460;18.812;2023-06-22T03:26:26;100444.22;;;26.97;56.54
79236;BME280;69062;47.460;18.812;2023-06-22T03:27:29;100449.63;;;26.97;56.81
79236;BME280;69062;47.460;18.812;2023-06-22T03:28:32;100454.22;;;26.97;56.56
79236;BME280;69062;47.460;18.812;2023-06-22T03:29:34;100455.06;;;26.97;56.50
79236;BME280;69062;47.460;18.812;2023-06-22T03:30:37;100462.34;;;26.97;56.45
79236;BME280;69062;47.460;18.812;2023-06-22T03:31:40;100452.34;;;26.97;56.74
79236;BME280;69062;47.460;18.812;2023-06-22T03:32:43;100460.50;;;26.97;56.50
79236;BME280;69062;47.460;18.812;2023-06-22T03:33:46;100450.66;;;26.96;56.60
79236;BME280;69062;47.460;18.812;2023-06-22T03:34:48;100446.09;;;26.97;57.01
79236;BME280;69062;47.460;18.812;2023-06-22T03:35:52;100449.81;;;26.96;56.45
79236;BME280;69062;47.460;18.812;2023-06-22T03:36:55;100454.41;;;26.95;56.44
79236;BME280;69062;47.460;18.812;2023-06-22T03:37:58;100457.97;;;26.96;56.46
79236;BME280;69062;47.460;18.812;2023-06-22T03:39:01;100464.22;;;26.96;56.65
79236;BME280;69062;47.460;18.812;2023-06-22T03:40:05;100457.97;;;26.96;56.83
79236;BME280;69062;47.460;18.812;2023-06-22T03:41:08;100448.97;;;26.95;56.48
79236;BME280;69062;47.460;18.812;2023-06-22T03:42:10;100458.97;;;26.94;56.64
79236;BME280;69062;47.460;18.812;2023-06-22T03:43:15;100448.13;;;26.94;56.49
79236;BME280;69062;47.460;18.812;2023-06-22T03:44:17;100445.44;;;26.94;56.58
79236;BME280;69062;47.460;18.812;2023-06-22T03:45:20;100442.72;;;26.94;56.67
79236;BME280;69062;47.460;18.812;2023-06-22T03:46:23;100446.41;;;26.93;56.56
79236;BME280;69062;47.460;18.812;2023-06-22T03:47:27;100449.97;;;26.94;56.86
79236;BME280;69062;47.460;18.812;2023-06-22T03:48:30;100444.56;;;26.94;56.82
79236;BME280;69062;47.460;18.812;2023-06-22T03:49:33;100451.84;;;26.93;56.89
79236;BME280;69062;47.460;18.812;2023-06-22T03:50:36;100448.28;;;26.93;56.81
79236;BME280;69062;47.460;18.812;2023-06-22T03:51:39;100452.03;;;26.92;56.65
79236;BME280;69062;47.460;18.812;2023-06-22T03:52:42;100452.88;;;26.92;56.95
79236;BME280;69062;47.460;18.812;2023-06-22T03:53:44;100449.13;;;26.93;57.09
79236;BME280;69062;47.460;18.812;2023-06-22T03:54:48;100448.47;;;26.91;56.99
79236;BME280;69062;47.460;18.812;2023-06-22T03:55:51;100444.72;;;26.92;56.92
79236;BME280;69062;47.460;18.812;2023-06-22T03:56:55;100457.44;;;26.92;56.69
79236;BME280;69062;47.460;18.812;2023-06-22T03:57:57;100453.88;;;26.91;56.99
79236;BME280;69062;47.460;18.812;2023-06-22T03:59:00;100452.03;;;26.92;56.95
79236;BME280;69062;47.460;18.812;2023-06-22T04:00:04;100454.72;;;26.92;57.29
79236;BME280;69062;47.460;18.812;2023-06-22T04:01:16;100453.88;;;26.91;56.81
79236;BME280;69062;47.460;18.812;2023-06-22T04:02:19;100447.63;;;26.91;56.46
79236;BME280;69062;47.460;18.812;2023-06-22T04:03:22;100450.34;;;26.91;56.84
79236;BME280;69062;47.460;18.812;2023-06-22T04:04:25;100448.66;;;26.90;56.74
79236;BME280;69062;47.460;18.812;2023-06-22T04:05:28;100450.16;;;26.92;56.63
79236;BME280;69062;47.460;18.812;2023-06-22T04:06:30;100453.88;;;26.91;56.63
79236;BME280;69062;47.460;18.812;2023-06-22T04:07:33;100448.47;;;26.91;56.96
79236;BME280;69062;47.460;18.812;2023-06-22T04:08:36;100446.78;;;26.90;56.71
79236;BME280;69062;47.460;18.812;2023-06-22T04:09:38;100444.06;;;26.90;57.10
79236;BME280;69062;47.460;18.812;2023-06-22T04:10:41;100449.50;;;26.90;57.08
79236;BME280;69062;47.460;18.812;2023-06-22T04:11:44;100445.09;;;26.89;56.74
79236;BME280;69062;47.460;18.812;2023-06-22T04:12:47;100445.94;;;26.90;56.50
79236;BME280;69062;47.460;18.812;2023-06-22T04:13:49;100447.81;;;26.89;56.97
79236;BME280;69062;47.460;18.812;2023-06-22T04:14:53;100445.09;;;26.89;56.86
79236;BME280;69062;47.460;18.812;2023-06-22T04:15:56;100445.09;;;26.89;56.71
79236;BME280;69062;47.460;18.812;2023-06-22T04:16:59;100438.81;;;26.89;56.78
79236;BME280;69062;47.460;18.812;2023-06-22T04:18:02;100448.66;;;26.90;56.96
79236;BME280;69062;47.460;18.812;2023-06-22T04:19:04;100439.66;;;26.89;56.63
79236;BME280;69062;47.460;18.812;2023-06-22T04:20:07;100448.84;;;26.88;56.87
79236;BME280;69062;47.460;18.812;2023-06-22T04:21:10;100446.97;;;26.89;56.89
79236;BME280;69062;47.460;18.812;2023-06-22T04:22:13;100441.53;;;26.89;56.96
79236;BME280;69062;47.460;18.812;2023-06-22T04:23:16;100438.00;;;26.88;56.27
79236;BME280;69062;47.460;18.812;2023-06-22T04:24:18;100449.69;;;26.89;56.97
79236;BME280;69062;47.460;18.812;2023-06-22T04:25:22;100449.69;;;26.89;56.61
79236;BME280;69062;47.460;18.812;2023-06-22T04:26:24;100451.53;;;26.88;56.96
79236;BME280;69062;47.460;18.812;2023-06-22T04:27:27;100449.69;;;26.89;56.78
79236;BME280;69062;47.460;18.812;2023-06-22T04:28:30;100459.69;;;26.88;56.99
79236;BME280;69062;47.460;18.812;2023-06-22T04:29:37;100448.00;;;26.88;57.06
79236;BME280;69062;47.460;18.812;2023-06-22T04:30:40;100459.69;;;26.88;56.90
79236;BME280;69062;47.460;18.812;2023-06-22T04:31:49;100460.69;;;26.87;56.69
79236;BME280;69062;47.460;18.812;2023-06-22T04:32:53;100463.41;;;26.87;56.82
79236;BME280;69062;47.460;18.812;2023-06-22T04:34:00;100461.53;;;26.88;56.68
79236;BME280;69062;47.460;18.812;2023-06-22T04:35:08;100467.81;;;26.88;56.99
79236;BME280;69062;47.460;18.812;2023-06-22T04:36:11;100468.84;;;26.87;56.82
79236;BME280;69062;47.460;18.812;2023-06-22T04:37:17;100475.94;;;26.88;57.15
79236;BME280;69062;47.460;18.812;2023-06-22T04:38:20;100471.53;;;26.87;57.04
79236;BME280;69062;47.460;18.812;2023-06-22T04:39:24;100473.22;;;26.88;56.89
79236;BME280;69062;47.460;18.812;2023-06-22T04:40:27;100476.09;;;26.87;56.91
79236;BME280;69062;47.460;18.812;2023-06-22T04:41:30;100478.66;;;26.88;57.03
79236;BME280;69062;47.460;18.812;2023-06-22T04:42:44;100473.22;;;26.88;56.44
79236;BME280;69062;47.460;18.812;2023-06-22T04:43:54;100471.53;;;26.87;56.76
79236;BME280;69062;47.460;18.812;2023-06-22T04:45:03;100475.09;;;26.88;56.92
79236;BME280;69062;47.460;18.812;2023-06-22T04:46:06;100479.69;;;26.87;56.86
79236;BME280;69062;47.460;18.812;2023-06-22T04:47:08;100484.06;;;26.88;56.92
79236;BME280;69062;47.460;18.812;2023-06-22T04:48:11;100479.69;;;26.87;56.79
79236;BME280;69062;47.460;18.812;2023-06-22T04:49:19;100482.38;;;26.87;56.70
79236;BME280;69062;47.460;18.812;2023-06-22T04:50:22;100476.97;;;26.87;56.73
79236;BME280;69062;47.460;18.812;2023-06-22T04:51:26;100482.38;;;26.87;56.94
79236;BME280;69062;47.460;18.812;2023-06-22T04:52:33;100474.25;;;26.87;56.82
79236;BME280;69062;47.460;18.812;2023-06-22T04:53:35;100477.81;;;26.88;56.66
79236;BME280;69062;47.460;18.812;2023-06-22T04:54:40;100476.97;;;26.87;56.98
79236;BME280;69062;47.460;18.812;2023-06-22T04:55:50;100468.84;;;26.87;56.70
79236;BME280;69062;47.460;18.812;2023-06-22T04:56:55;100477.81;;;26.88;56.63
79236;BME280;69062;47.460;18.812;2023-06-22T04:58:01;100477.81;;;26.88;57.14
79236;BME280;69062;47.460;18.812;2023-06-22T04:59:07;100480.53;;;26.88;56.94
79236;BME280;69062;47.460;18.812;2023-06-22T05:00:11;100485.94;;;26.88;56.99
79236;BME280;69062;47.460;18.812;2023-06-22T05:01:20;100485.94;;;26.88;56.64
79236;BME280;69062;47.460;18.812;2023-06-22T05:02:24;100491.38;;;26.88;56.44
79236;BME280;69062;47.460;18.812;2023-06-22T05:03:30;100490.34;;;26.89;56.98
79236;BME280;69062;47.460;18.812;2023-06-22T05:04:34;100498.47;;;26.89;56.74
79236;BME280;69062;47.460;18.812;2023-06-22T05:05:38;100490.34;;;26.89;56.98
79236;BME280;69062;47.460;18.812;2023-06-22T05:06:41;100498.66;;;26.87;56.98
79236;BME280;69062;47.460;18.812;2023-06-22T05:07:46;100503.91;;;26.89;56.67
79236;BME280;69062;47.460;18.812;2023-06-22T05:08:55;100503.06;;;26.88;56.76
79236;BME280;69062;47.460;18.812;2023-06-22T05:10:04;100508.47;;;26.88;57.17
79236;BME280;69062;47.460;18.812;2023-06-22T05:11:07;100514.75;;;26.89;56.87
79236;BME280;69062;47.460;18.812;2023-06-22T05:12:10;100512.88;;;26.89;56.92
79236;BME280;69062;47.460;18.812;2023-06-22T05:13:14;100503.91;;;26.89;56.70
79236;BME280;69062;47.460;18.812;2023-06-22T05:14:17;100509.31;;;26.89;56.80
79236;BME280;69062;47.460;18.812;2023-06-22T05:15:20;100511.19;;;26.88;57.10
79236;BME280;69062;47.460;18.812;2023-06-22T05:16:25;100511.00;;;26.90;57.14
79236;BME280;69062;47.460;18.812;2023-06-22T05:17:28;100515.59;;;26.89;56.68
79236;BME280;69062;47.460;18.812;2023-06-22T05:18:31;100507.44;;;26.89;56.93
79236;BME280;69062;47.460;18.812;2023-06-22T05:19:34;100511.19;;;26.88;56.92
79236;BME280;69062;47.460;18.812;2023-06-22T05:20:37;100511.84;;;26.90;56.90
79236;BME280;69062;47.460;18.812;2023-06-22T05:21:40;100511.84;;;26.90;56.90
79236;BME280;69062;47.460;18.812;2023-06-22T05:22:43;100511.84;;;26.90;57.31
79236;BME280;69062;47.460;18.812;2023-06-22T05:23:46;100511.84;;;26.90;56.50
79236;BME280;69062;47.460;18.812;2023-06-22T05:24:48;100519.97;;;26.90;56.69
79236;BME280;69062;47.460;18.812;2023-06-22T05:25:51;100518.13;;;26.91;56.95
79236;BME280;69062;47.460;18.812;2023-06-22T05:26:54;100524.38;;;26.91;56.71
79236;BME280;69062;47.460;18.812;2023-06-22T05:27:57;100525.22;;;26.92;56.96
79236;BME280;69062;47.460;18.812;2023-06-22T05:29:02;100524.38;;;26.91;56.71
79236;BME280;69062;47.460;18.812;2023-06-22T05:30:06;100528.78;;;26.92;57.19
79236;BME280;69062;47.460;18.812;2023-06-22T05:31:09;100525.22;;;26.92;56.92
79236;BME280;69062;47.460;18.812;2023-06-22T05:32:12;100535.03;;;26.93;56.80
79236;BME280;69062;47.460;18.812;2023-06-22T05:33:15;100534.19;;;26.92;57.03
79236;BME280;69062;47.460;18.812;2023-06-22T05:34:17;100527.75;;;26.93;56.79
79236;BME280;69062;47.460;18.812;2023-06-22T05:35:20;100528.59;;;26.94;57.41
79236;BME280;69062;47.460;18.812;2023-06-22T05:36:23;100531.31;;;26.94;57.37
79236;BME280;69062;47.460;18.812;2023-06-22T05:37:28;100533.03;;;26.95;57.66